Details From KMSY - Louis Armstrong New Orleans Intl
To SVVA - Arturo Michelena Intl
Flight Number -
Tags Generated
Created
Modified
Stats Distance 1,726 nm / 3,197 km
Max Altitude 0 ft / 0 m
Waypoints 4
Social Downloads 1
Likes 0
Share VATSIM

Download

Looking for another format? Having issues loading an existing format? Contact us
Advertisement - Login to hide

Notes

Generated

Route

KMSY BEMOL VLC SVVA

ID Type Via Altitude Latitude Longitude Leg Dist Tot Dist Heading (true) Name
O KMSY APT - 0 ft / 0 m 29.99177˚ -90.25724˚ - 0 nm - Louis Armstrong New Orleans Intl
BEMOL FIX - 0 ft / 0 m 19.34056˚ -77.09333˚ 960 nm 960 nm 129° / 134° -
VLC NDB - 0 ft / 0 m 10.15203˚ -67.94236˚ 765 nm 1726 nm 135° / 137° VALENCIA NDB
O SVVA APT - 0 ft / 0 m 10.15040˚ -67.94203˚ 0 nm 1726 nm 169° / 169° -

Altitude Profile

Advertisement - Login to hide

Weather


0- 5 10 15 20 25 30 35+ Temperature / ° C

Clouds and Precipitation
Forecast for 2018-05-22 18:00 UTC. Updated 5 hours ago

Ground ~20,000 ft ~40,000 ft Winds

KMSY

Details ICAO KMSY (MSY)
Name Louis Armstrong New Orleans Intl
Region United States
Timezone America/Chicago (UTC-5.0)
Stats Elevation 3 ft / 1 m (AMSL)
Location 29.993349° -90.257406°
Runways 2
Magnetic Variation 0.782° W

METAR

KMSY 222053Z COR 13010KT 10SM FEW036 FEW120 BKN250 31/22 A2996 RMK AO2 SLP149 CB DSNT N AND NE T03110217 56021

Decode

TAF

KMSY 221736Z 2218/2324 VRB04KT P6SM VCTS SCT035CB FM222100 12005KT P6SM VCTS SCT030CB FM230200 VRB03KT P6SM FEW025 FM231500 04005KT P6SM VCTS BKN030CB

Decode

Departure Runways

ID Width Length Bearing (true) Bearing (mag) Surface Threshold Offset Overrun Length
01 150 ft / 46 m 7,021 ft / 2,140 m 15.41° 16.19° Concrete 0 ft / 0 m 600 ft / 183 m
10 150 ft / 46 m 10,090 ft / 3,075 m 105.55° 106.33° Concrete 0 ft / 0 m 400 ft / 122 m
19 150 ft / 46 m 7,021 ft / 2,140 m 195.41° 196.19° Concrete 0 ft / 0 m 600 ft / 183 m
28 150 ft / 46 m 10,090 ft / 3,075 m 285.57° 286.35° Concrete 305 ft / 93 m 249 ft / 76 m

SVVA

Details ICAO SVVA (VLN)
Name ARTURO MICHELENA INTL
Region Venezuela
Timezone America/Caracas (UTC-4.0)
Stats Elevation 1,417 ft / 432 m (AMSL)
Location 10.149733° -67.928400°
Runways 1
Magnetic Variation 11.785° W

METAR

SVVA 222114Z 16003KT 9999 FEW016 OVC100 29/22 Q1012

Decode

TAF

Not found

Destination Runways

ID Width Length Bearing (true) Bearing (mag) Surface Threshold Offset Overrun Length
10 164 ft / 50 m 9,806 ft / 2,989 m 92.84° 104.63° Asphalt 0 ft / 0 m 0 ft / 0 m
28 164 ft / 50 m 9,806 ft / 2,989 m 272.85° 284.64° Asphalt 0 ft / 0 m 250 ft / 76 m